ADDS METAR Data INFO
IDs: Format: Raw Decoded Include TAF

Data at: 0218 UTC 18 Jan 2018

KGDB 180155Z AUTO 22010KT 7SM CLR M03/M07 A3010 RMK AO2 T10261070
KGDB 180135Z AUTO 22009KT 7SM CLR M03/M07 A3011 RMK AO2 T10331073
KGDB 180115Z AUTO 22010KT 7SM CLR M03/M07 A3012 RMK AO2 T10321074
KGDB 180055Z AUTO 22010KT 7SM CLR M03/M07 A3013 RMK AO2 T10311071
KGDB 180035Z AUTO 22008KT 10SM CLR M03/M07 A3013 RMK AO2 T10291071
KGDB 180015Z AUTO 23008KT 7SM CLR M02/M07 A3013 RMK AO2 T10231070
KGDB 172355Z AUTO 23010KT 10SM CLR M01/M07 A3013 RMK AO2 T10151069 10021 21039
KGDB 172335Z AUTO 22012KT 7SM CLR M01/M07 A3012 RMK AO2 T10151067
KGDB 172315Z AUTO 24010KT 7SM CLR 00/M06 A3012 RMK AO2 T10031065
KGDB 172255Z AUTO 22013KT 10SM CLR 00/M06 A3011 RMK AO2 T10031062
KGDB 172235Z AUTO 21008KT 10SM CLR 00/M06 A3011 RMK AO2 T00021061
KGDB 172215Z AUTO 23007KT 7SM CLR 01/M05 A3013 RMK AO2 T00081055
KGDB 172155Z AUTO 22009KT 10SM CLR 02/M06 A3011 RMK AO2 T00151062
KGDB 172135Z AUTO 22010KT 10SM CLR 02/M07 A3011 RMK AO2 T00201067
KGDB 172115Z AUTO 21010KT 10SM CLR 02/M06 A3011 RMK AO2 T00201063
KGDB 172055Z AUTO 23010KT 7SM CLR 02/M06 A3012 RMK AO2 T00151065
KGDB 172035Z AUTO 22009KT 5SM HZ CLR 01/M06 A3013 RMK AO2 T00101065
KGDB 172015Z AUTO 23009KT 5SM HZ CLR 01/M07 A3013 RMK AO2 T00091072
KGDB 171955Z AUTO 24012G16KT 7SM CLR 01/M08 A3014 RMK AO2 T00051077
KGDB 171935Z AUTO 22008KT 7SM CLR 00/M08 A3014 RMK AO2 T10041082
KGDB 171915Z AUTO 21011KT 7SM CLR M01/M09 A3014 RMK AO2 T10111089
KGDB 171855Z AUTO 20010KT 10SM CLR M02/M10 A3014 RMK AO2 T10201096
KGDB 171835Z AUTO 20011G18KT 10SM CLR M02/M10 A3015 RMK AO2 T10251098
KGDB 171815Z AUTO 20016G19KT 10SM CLR M03/M10 A3016 RMK AO2 T10311103
KGDB 171755Z AUTO 19015KT 10SM CLR M04/M11 A3017 RMK AO2 T10401106 11040 21157
KGDB 171735Z AUTO 19012KT 10SM CLR M05/M11 A3020 RMK AO2 T10471109
KGDB 171715Z AUTO 19012KT 10SM CLR M05/M11 A3021 RMK AO2 T10501112
KGDB 171655Z AUTO 20012KT 7SM CLR M06/M12 A3023 RMK AO2 T10571120
KGDB 171635Z AUTO 20011KT 10SM CLR M07/M13 A3023 RMK AO2 T10661126
KGDB 171615Z AUTO 21012G16KT 10SM CLR M07/M13 A3024 RMK AO2 T10741133
KGDB 171555Z AUTO 21010KT 10SM CLR M08/M14 A3024 RMK AO2 T10821140
KGDB 171537Z AUTO 20008KT 10SM CLR M09/M14 A3025 RMK AO2 T10901143
KGDB 171515Z AUTO 19011KT 10SM CLR M09/M15 A3025 RMK AO2 T10951148
KGDB 171455Z AUTO 19010KT 10SM CLR M10/M15 A3027 RMK AO2 T11041151
KGDB 171435Z AUTO 19008KT 10SM CLR M11/M16 A3028 RMK AO2 T11121156
KGDB 171415Z AUTO 19010KT 7SM CLR M12/M16 A3028 RMK AO2 T11191160
KGDB 171355Z AUTO 18006KT 7SM CLR M14/M17 A3028 RMK AO2 T11401175
KGDB 171335Z AUTO 18007KT 7SM CLR M14/M17 A3029 RMK AO2 T11391175
KGDB 171315Z AUTO 19008KT 10SM CLR M14/M17 A3030 RMK AO2 T11371171
KGDB 171255Z AUTO 17007KT 10SM CLR M14/M18 A3031 RMK AO2 T11451177
KGDB 171235Z AUTO 17008KT 10SM CLR M15/M18 A3031 RMK AO2 T11501184
KGDB 171215Z AUTO 17005KT 10SM CLR M15/M18 A3032 RMK AO2 T11491180
KGDB 171155Z AUTO 19007KT 10SM CLR M16/M19 A3033 RMK AO2 T11571187 11155 21174
KGDB 171135Z AUTO 18007KT 10SM CLR M16/M19 A3034 RMK AO2 T11581187
KGDB 171115Z AUTO 17007KT 10SM CLR M16/M19 A3035 RMK AO2 T11581187
KGDB 171055Z AUTO 17007KT 10SM CLR M16/M19 A3035 RMK AO2 T11581188
KGDB 171035Z AUTO 17006KT 10SM CLR M16/M19 A3036 RMK AO2 T11611189
KGDB 171015Z AUTO 16005KT 10SM CLR M16/M19 A3036 RMK AO2 T11651191
KGDB 170955Z AUTO 15006KT 10SM CLR M17/M20 A3037 RMK AO2 T11681197
KGDB 170935Z AUTO 14006KT 7SM CLR M16/M20 A3038 RMK AO2 T11651196
KGDB 170915Z AUTO 14006KT 10SM CLR M16/M19 A3039 RMK AO2 T11631195
KGDB 170855Z AUTO 15007KT 10SM CLR M16/M19 A3039 RMK AO2 T11641195
KGDB 170835Z AUTO 15005KT 10SM CLR M16/M19 A3041 RMK AO2 T11601192
KGDB 170815Z AUTO 15007KT 10SM CLR M17/M20 A3041 RMK AO2 T11671197
KGDB 170755Z AUTO 15007KT 10SM CLR M17/M20 A3042 RMK AO2 T11701199
KGDB 170735Z AUTO 16006KT 10SM CLR M17/M20 A3043 RMK AO2 T11731201
KGDB 170715Z AUTO 16007KT 10SM CLR M17/M20 A3045 RMK AO2 T11691198
KGDB 170655Z AUTO 16007KT 10SM CLR M17/M20 A3045 RMK AO2 T11701199
KGDB 170635Z AUTO 16008KT 10SM CLR M17/M20 A3047 RMK AO2 T11711199
KGDB 170615Z AUTO 17008KT 10SM CLR M17/M20 A3047 RMK AO2 T11721200
KGDB 170555Z AUTO 17008KT 10SM CLR M17/M20 A3048 RMK AO2 T11721198 11162 21190 411401225
KGDB 170535Z AUTO 17007KT 10SM CLR M17/M20 A3049 RMK AO2 T11721198
KGDB 170515Z AUTO 17009KT 10SM CLR M17/M20 A3050 RMK AO2 T11751200
KGDB 170455Z AUTO 17009KT 10SM CLR M17/M20 A3051 RMK AO2 T11721198
KGDB 170435Z AUTO 18007KT 10SM CLR M17/M19 A3052 RMK AO2 T11671195
KGDB 170415Z AUTO 19007KT 10SM CLR M17/M19 A3052 RMK AO2 T11661193
KGDB 170355Z AUTO 20007KT 10SM CLR M17/M19 A3053 RMK AO2 T11671193
KGDB 170335Z AUTO 19009KT 10SM CLR M17/M19 A3053 RMK AO2 T11711195
KGDB 170315Z AUTO 17006KT 10SM CLR M16/M19 A3054 RMK AO2 T11651190
KGDB 170255Z AUTO 19010KT 10SM CLR M18/M20 A3053 RMK AO2 T11801201
KGDB 170235Z AUTO 18006KT 10SM CLR M19/M21 A3057 RMK AO2 T11901213
KGDB 170215Z AUTO 17005KT 10SM CLR M17/M20 A3060 RMK AO2 T11751200
KGDB 170155Z AUTO 17006KT 10SM CLR M18/M20 A3058 RMK AO2 T11801205
KGDB 170135Z AUTO 17008KT 10SM CLR M18/M21 A3058 RMK AO2 T11831206
KGDB 170115Z AUTO 17008KT 10SM CLR M18/M21 A3059 RMK AO2 T11831207
KGDB 170055Z AUTO 17007KT 10SM CLR M19/M21 A3060 RMK AO2 T11871210
KGDB 170035Z AUTO 17005KT 10SM CLR M18/M20 A3061 RMK AO2 T11781203
KGDB 170015Z AUTO 16005KT 10SM CLR M17/M20 A3061 RMK AO2 T11711198
KGDB 162355Z AUTO 16004KT 10SM CLR M16/M19 A3062 RMK AO2 T11601189 11140 21181
KGDB 162335Z AUTO 00000KT 10SM CLR M15/M18 A3063 RMK AO2 T11521185
KGDB 162315Z AUTO 00000KT 7SM CLR M16/M19 A3064 RMK AO2 T11591191
KGDB 162255Z AUTO 00000KT 10SM CLR M15/M18 A3063 RMK AO2 T11481185
KGDB 162235Z AUTO 00000KT 10SM CLR M14/M18 A3064 RMK AO2 T11441182
KGDB 162215Z AUTO 28004KT 7SM CLR M14/M18 A3066 RMK AO2 T11411181
KGDB 162155Z AUTO 29004KT 7SM CLR M14/M18 A3066 RMK AO2 T11411180
KGDB 162135Z AUTO 28007KT 10SM CLR M14/M18 A3067 RMK AO2 T11421180
KGDB 162115Z AUTO 26006KT 10SM CLR M14/M18 A3067 RMK AO2 T11451183
KGDB 162055Z AUTO 28004KT 10SM CLR M15/M19 A3067 RMK AO2 T11471186
KGDB 162035Z AUTO 27007KT 10SM CLR M15/M19 A3067 RMK AO2 T11511190
KGDB 162015Z AUTO 27007KT 7SM CLR M15/M19 A3068 RMK AO2 T11531192
KGDB 161955Z AUTO 28007KT 7SM CLR M16/M20 A3069 RMK AO2 T11571196
KGDB 161935Z AUTO 28007KT 7SM CLR M16/M20 A3070 RMK AO2 T11601199
KGDB 161915Z AUTO 29009KT 7SM CLR M17/M20 A3070 RMK AO2 T11661205
KGDB 161855Z AUTO 30009KT 7SM CLR M17/M21 A3071 RMK AO2 T11681207
KGDB 161835Z AUTO 29008KT 7SM CLR M17/M21 A3072 RMK AO2 T11731211
KGDB 161815Z AUTO 29009KT 7SM CLR M18/M21 A3073 RMK AO2 T11781215
KGDB 161755Z AUTO 27009KT 7SM CLR M18/M22 A3073 RMK AO2 T11821218 11182 21215
KGDB 161735Z AUTO 28007KT 7SM CLR M19/M22 A3074 RMK AO2 T11881223
KGDB 161715Z AUTO 29008KT 7SM CLR M19/M23 A3075 RMK AO2 T11911226
KGDB 161655Z AUTO 29010KT 7SM CLR M19/M23 A3076 RMK AO2 T11951231
KGDB 161635Z AUTO 28009KT 10SM SCT009 M20/M23 A3077 RMK AO2 T11991233
KGDB 161615Z AUTO 29010KT 7SM OVC009 M20/M24 A3077 RMK AO2 T12051239
KGDB 161555Z AUTO 28010KT 7SM BKN009 M21/M24 A3076 RMK AO2 T12071241
KGDB 161535Z AUTO 30009KT 10SM SCT009 M21/M24 A3076 RMK AO2 T12101244
KGDB 161515Z AUTO 30009KT 7SM CLR M21/M24 A3076 RMK AO2 T12111243
KGDB 161455Z AUTO 30009KT 10SM SCT012 M21/M24 A3076 RMK AO2 T12141244
KGDB 161435Z AUTO 31011KT 10SM OVC012 M21/M24 A3076 RMK AO2 T12111241